Time;durP1;ratioP1;P1;durP2;ratioP2;P2;SDS_P1;SDS_P2;PMS_P1;PMS_P2;Temp;Humidity;BMP_temperature;BMP_pressure;BME280_temperature;BME280_humidity;BME280_pressure;Samples;Min_cycle;Max_cycle;Signal;HPM_P1;HPM_P2
2022/07/12 00:01:08;;;;;;;3.90;2.38;;;17.30;61.70;;;;;;5045641;28;20392;-61
2022/07/12 00:03:34;;;;;;;4.80;2.00;;;17.30;61.70;;;;;;5048294;28;20033;-58
2022/07/12 00:06:01;;;;;;;3.38;2.45;;;17.30;61.60;;;;;;5045369;28;20022;-59
2022/07/12 00:08:27;;;;;;;3.50;2.20;;;17.20;61.50;;;;;;5047981;28;20044;-60
2022/07/12 00:10:53;;;;;;;4.43;1.95;;;17.20;61.50;;;;;;5044995;28;20064;-61
2022/07/12 00:13:19;;;;;;;3.40;2.30;;;17.20;61.50;;;;;;5049792;28;20037;-61
2022/07/12 00:15:45;;;;;;;2.78;2.28;;;17.10;61.40;;;;;;5065172;28;20059;-60
2022/07/12 00:18:11;;;;;;;3.33;2.20;;;17.00;61.60;;;;;;5043925;28;20477;-59
2022/07/12 00:20:37;;;;;;;2.75;2.45;;;17.00;61.70;;;;;;5048139;28;20481;-58
2022/07/12 00:23:03;;;;;;;2.67;2.10;;;17.00;62.00;;;;;;5039470;28;20044;-59
2022/07/12 00:25:30;;;;;;;3.03;2.72;;;17.00;62.20;;;;;;5050219;28;20065;-60
2022/07/12 00:27:56;;;;;;;3.25;2.28;;;16.90;62.30;;;;;;5055756;28;20029;-60
2022/07/12 00:30:23;;;;;;;4.32;2.65;;;16.90;62.30;;;;;;5050563;28;20053;-59
2022/07/12 00:32:49;;;;;;;3.83;3.08;;;16.90;62.40;;;;;;5056729;28;20053;-58
2022/07/12 00:35:15;;;;;;;3.10;2.75;;;16.80;62.40;;;;;;5065263;28;20033;-59
2022/07/12 00:37:41;;;;;;;2.63;2.40;;;16.80;62.30;;;;;;5057656;28;20021;-60
2022/07/12 00:40:08;;;;;;;3.85;2.30;;;16.80;62.20;;;;;;5050395;28;20044;-59
2022/07/12 00:42:35;;;;;;;2.83;2.40;;;16.80;62.20;;;;;;5054024;28;20037;-60
2022/07/12 00:45:03;;;;;;;2.95;2.35;;;16.80;62.20;;;;;;5047843;28;20116;-58
2022/07/12 00:47:40;;;;;;;4.25;2.50;;;16.70;62.20;;;;;;5063412;28;20038;-59
2022/07/12 00:50:13;;;;;;;2.28;2.05;;;16.70;62.70;;;;;;5047871;28;20036;-59
2022/07/12 00:52:39;;;;;;;2.72;2.20;;;16.70;62.50;;;;;;5049811;28;20029;-58
2022/07/12 00:55:06;;;;;;;2.30;2.10;;;16.70;62.20;;;;;;5048696;28;20075;-59
2022/07/12 00:57:33;;;;;;;3.28;2.10;;;16.60;62.30;;;;;;5067721;28;20088;-59
2022/07/12 00:59:59;;;;;;;2.40;2.20;;;16.60;62.40;;;;;;5050709;28;20094;-60
2022/07/12 01:02:26;;;;;;;1.95;1.85;;;16.60;62.50;;;;;;5057288;28;20029;-59
2022/07/12 01:04:54;;;;;;;5.53;2.10;;;16.60;62.50;;;;;;5050037;28;20026;-59
2022/07/12 01:07:20;;;;;;;2.70;2.03;;;16.60;63.30;;;;;;5056994;28;20030;-59
2022/07/12 01:09:46;;;;;;;3.67;1.90;;;16.50;62.50;;;;;;5058984;28;20047;-60
2022/07/12 01:12:12;;;;;;;4.97;1.90;;;16.50;62.60;;;;;;5048103;28;20030;-60
2022/07/12 01:14:39;;;;;;;2.60;2.00;;;16.50;62.80;;;;;;5051257;28;20033;-59
2022/07/12 01:17:07;;;;;;;2.03;1.88;;;16.50;63.00;;;;;;5043054;28;20030;-59
2022/07/12 01:19:34;;;;;;;3.60;2.45;;;16.50;63.00;;;;;;5045999;28;20041;-59
2022/07/12 01:22:01;;;;;;;2.75;1.80;;;16.50;62.90;;;;;;5046823;28;20026;-58
2022/07/12 01:24:27;;;;;;;2.10;1.90;;;16.50;62.80;;;;;;5054149;28;20029;-59
2022/07/12 01:26:53;;;;;;;1.98;1.75;;;16.50;62.70;;;;;;5048086;28;20079;-60
2022/07/12 01:29:20;;;;;;;4.63;2.08;;;16.50;63.00;;;;;;5054547;28;20140;-60
2022/07/12 01:31:46;;;;;;;5.13;1.95;;;16.50;63.30;;;;;;5050000;28;20240;-58
2022/07/12 01:34:12;;;;;;;3.33;2.10;;;16.50;63.60;;;;;;5049234;28;20022;-60
2022/07/12 01:36:38;;;;;;;2.15;1.85;;;16.50;63.80;;;;;;5051313;28;20041;-60
2022/07/12 01:39:04;;;;;;;6.38;2.35;;;16.50;64.00;;;;;;5048938;28;20044;-60
2022/07/12 01:41:32;;;;;;;1.90;1.38;;;16.50;64.10;;;;;;5047553;28;20377;-59
2022/07/12 01:43:58;;;;;;;3.33;1.88;;;16.50;64.10;;;;;;5045992;28;20034;-59
2022/07/12 01:46:24;;;;;;;5.38;2.08;;;16.50;64.00;;;;;;5038974;28;20026;-60
2022/07/12 01:48:49;;;;;;;4.07;2.97;;;16.50;64.00;;;;;;5049314;28;20035;-60
2022/07/12 01:51:16;;;;;;;3.85;2.97;;;16.50;63.80;;;;;;5039440;28;20382;-60
2022/07/12 01:53:42;;;;;;;5.07;2.17;;;16.50;63.80;;;;;;5054394;28;20025;-58
2022/07/12 01:56:08;;;;;;;2.00;1.80;;;16.50;63.80;;;;;;5049002;28;20028;-58
2022/07/12 01:58:35;;;;;;;2.95;2.03;;;16.50;63.80;;;;;;5061781;28;20036;-61
2022/07/12 02:01:01;;;;;;;2.97;1.70;;;16.50;63.90;;;;;;5038068;28;20300;-60
2022/07/12 02:03:26;;;;;;;3.55;2.42;;;16.50;64.00;;;;;;5063403;28;20091;-61
2022/07/12 02:05:52;;;;;;;5.10;2.28;;;16.50;64.10;;;;;;5046441;28;20021;-59
2022/07/12 02:08:18;;;;;;;2.45;1.95;;;16.50;64.20;;;;;;5062669;28;20170;-58
2022/07/12 02:10:44;;;;;;;3.47;2.00;;;16.50;64.20;;;;;;5046300;28;20037;-59
2022/07/12 02:13:10;;;;;;;2.50;2.30;;;16.40;64.20;;;;;;5057840;28;20022;-60
2022/07/12 02:15:36;;;;;;;3.17;1.80;;;16.50;64.20;;;;;;5043967;28;20040;-59
2022/07/12 02:18:02;;;;;;;1.95;1.77;;;16.50;64.20;;;;;;5044606;28;20428;-58
2022/07/12 02:20:28;;;;;;;6.03;2.10;;;16.50;64.20;;;;;;5065534;28;20036;-59
2022/07/12 02:22:53;;;;;;;2.28;1.80;;;16.50;64.40;;;;;;5041799;28;20036;-60
2022/07/12 02:25:20;;;;;;;3.78;2.22;;;16.50;64.40;;;;;;5045618;28;20072;-58
2022/07/12 02:27:46;;;;;;;2.25;1.58;;;16.50;64.40;;;;;;5040004;28;20022;-59
2022/07/12 02:30:12;;;;;;;2.80;1.67;;;16.50;64.50;;;;;;5045011;28;20172;-59
2022/07/12 02:32:38;;;;;;;2.95;1.90;;;16.50;64.60;;;;;;5053828;28;20034;-58
2022/07/12 02:35:07;;;;;;;3.00;2.10;;;16.50;64.70;;;;;;5049475;28;20077;-59
2022/07/12 02:37:33;;;;;;;2.70;1.70;;;16.60;65.10;;;;;;5052898;28;20052;-59
2022/07/12 02:42:43;;;;;;;5.68;1.80;;;16.60;64.80;;;;;;5037730;28;20387;-58
2022/07/12 02:45:10;;;;;;;9.45;2.10;;;16.60;64.60;;;;;;5041978;28;20049;-60
2022/07/12 02:47:40;;;;;;;2.90;2.38;;;16.60;64.70;;;;;;5042804;28;20036;-59
2022/07/12 02:50:06;;;;;;;2.15;1.80;;;16.60;65.00;;;;;;5044928;28;20488;-59
2022/07/12 02:52:33;;;;;;;4.25;2.00;;;16.60;64.80;;;;;;5057078;28;20025;-59
2022/07/12 02:54:58;;;;;;;2.85;1.95;;;16.60;64.80;;;;;;5048262;28;20033;-59
2022/07/12 02:57:24;;;;;;;1.90;1.70;;;16.60;64.90;;;;;;5050285;28;20034;-59
2022/07/12 02:59:50;;;;;;;2.72;2.00;;;16.60;65.10;;;;;;5048810;28;20120;-58
2022/07/12 03:02:16;;;;;;;2.72;2.00;;;16.60;65.10;;;;;;5053820;28;20112;-60
2022/07/12 03:04:42;;;;;;;6.95;2.22;;;16.60;65.20;;;;;;5047411;28;20040;-61
2022/07/12 03:07:07;;;;;;;2.00;1.80;;;16.60;65.30;;;;;;5044161;28;20511;-60
2022/07/12 03:09:33;;;;;;;2.45;2.10;;;16.60;65.20;;;;;;5066544;28;20537;-59
2022/07/12 03:11:59;;;;;;;2.53;2.05;;;16.60;65.30;;;;;;5050196;28;20029;-61
2022/07/12 03:14:24;;;;;;;3.58;2.08;;;16.60;65.10;;;;;;5049579;28;20032;-59
2022/07/12 03:16:50;;;;;;;3.05;1.95;;;16.70;65.00;;;;;;5052591;28;20119;-60
2022/07/12 03:19:16;;;;;;;2.63;1.98;;;16.70;65.10;;;;;;5045141;28;20026;-60
2022/07/12 03:21:42;;;;;;;2.63;2.10;;;16.70;65.10;;;;;;5048771;28;20424;-60
2022/07/12 03:24:08;;;;;;;1.70;1.60;;;16.70;65.20;;;;;;5060633;28;20040;-59
2022/07/12 03:26:33;;;;;;;2.67;2.10;;;16.70;65.20;;;;;;5051323;28;20476;-60
2022/07/12 03:29:01;;;;;;;2.00;1.80;;;16.70;65.30;;;;;;5057232;28;20061;-62
2022/07/12 03:31:27;;;;;;;2.00;1.70;;;16.70;65.30;;;;;;5053518;28;20030;-59
2022/07/12 03:33:55;;;;;;;2.22;1.90;;;16.70;65.30;;;;;;5055861;28;20056;-61
2022/07/12 03:36:20;;;;;;;2.08;1.67;;;16.70;65.50;;;;;;5036868;28;20060;-59
2022/07/12 03:38:46;;;;;;;2.65;1.95;;;16.70;65.50;;;;;;5044532;28;20089;-60
2022/07/12 03:41:12;;;;;;;2.58;1.90;;;16.80;65.80;;;;;;5045918;28;20040;-60
2022/07/12 03:43:37;;;;;;;1.88;1.67;;;16.70;65.80;;;;;;5041424;28;20049;-59
2022/07/12 03:46:03;;;;;;;2.55;1.65;;;16.80;65.90;;;;;;5053466;28;20021;-59
2022/07/12 03:48:29;;;;;;;2.72;1.58;;;16.80;65.80;;;;;;5034005;28;20049;-59
2022/07/12 03:50:55;;;;;;;1.55;1.45;;;16.80;65.80;;;;;;5052812;28;20083;-60
2022/07/12 03:53:21;;;;;;;2.17;1.50;;;16.80;65.80;;;;;;5045242;28;20061;-60
2022/07/12 03:55:47;;;;;;;1.30;1.20;;;16.80;65.80;;;;;;5058832;28;20037;-61
2022/07/12 03:58:13;;;;;;;1.52;1.30;;;16.90;65.80;;;;;;5044873;28;20035;-60
2022/07/12 04:00:42;;;;;;;2.88;1.50;;;16.80;65.70;;;;;;5052423;28;20056;-60
2022/07/12 04:03:10;;;;;;;3.83;1.40;;;16.90;65.80;;;;;;5044445;28;20057;-59
2022/07/12 04:05:39;;;;;;;2.33;1.83;;;16.90;65.80;;;;;;5053440;28;20036;-59
2022/07/12 04:08:05;;;;;;;1.55;1.35;;;16.90;65.70;;;;;;5062440;28;20040;-60
2022/07/12 04:10:31;;;;;;;1.98;1.73;;;16.90;65.60;;;;;;5050461;28;20045;-60
2022/07/12 04:12:56;;;;;;;2.28;1.50;;;16.90;65.50;;;;;;5036654;28;20052;-59
2022/07/12 04:15:22;;;;;;;2.10;1.40;;;16.90;65.60;;;;;;5055256;28;20026;-60
2022/07/12 04:17:48;;;;;;;1.48;1.30;;;16.90;65.60;;;;;;5062122;28;20041;-59
2022/07/12 04:20:13;;;;;;;3.40;1.67;;;16.90;65.70;;;;;;5056325;28;20106;-59
2022/07/12 04:22:39;;;;;;;1.73;1.33;;;16.90;65.60;;;;;;5051436;28;20041;-59
2022/07/12 04:25:09;;;;;;;1.88;1.48;;;16.90;65.50;;;;;;4954621;28;20040;-60
2022/07/12 04:27:35;;;;;;;3.42;1.58;;;16.90;65.70;;;;;;5044818;28;20025;-61
2022/07/12 04:30:01;;;;;;;2.08;1.67;;;16.90;65.40;;;;;;5056024;28;20053;-60
2022/07/12 04:32:27;;;;;;;2.42;1.70;;;16.90;65.30;;;;;;5053339;28;20029;-60
2022/07/12 04:34:53;;;;;;;3.28;1.60;;;16.90;65.30;;;;;;5057565;28;20171;-61
2022/07/12 04:37:18;;;;;;;1.35;1.25;;;16.90;65.40;;;;;;5039674;28;20030;-60
2022/07/12 04:39:45;;;;;;;1.52;1.42;;;16.90;65.50;;;;;;5054225;28;20030;-61
2022/07/12 04:42:11;;;;;;;1.20;1.08;;;16.90;65.60;;;;;;5066810;28;20067;-61
2022/07/12 04:44:36;;;;;;;1.65;1.38;;;16.90;65.60;;;;;;5051209;28;20039;-61
2022/07/12 04:47:02;;;;;;;1.75;1.65;;;16.90;65.90;;;;;;5058191;28;20032;-59
2022/07/12 04:49:28;;;;;;;2.88;1.58;;;16.90;66.10;;;;;;5051083;28;20018;-61
2022/07/12 04:51:54;;;;;;;1.95;1.38;;;17.00;66.00;;;;;;5067022;28;20025;-60
2022/07/12 04:54:19;;;;;;;1.80;1.45;;;17.00;65.90;;;;;;5050624;28;20037;-59
2022/07/12 04:56:45;;;;;;;2.60;1.45;;;17.10;65.90;;;;;;5063027;28;20101;-60
2022/07/12 04:59:11;;;;;;;2.13;1.70;;;17.10;65.80;;;;;;5047746;28;20037;-59
2022/07/12 05:01:36;;;;;;;2.88;1.92;;;17.20;65.80;;;;;;5043695;28;20055;-59
2022/07/12 05:04:02;;;;;;;1.90;1.67;;;17.20;65.60;;;;;;5039291;28;20070;-60
2022/07/12 05:06:28;;;;;;;2.00;1.77;;;17.20;65.70;;;;;;5057862;28;20025;-60
2022/07/12 05:08:53;;;;;;;1.77;1.60;;;17.30;65.70;;;;;;5058494;28;20056;-60
2022/07/12 05:11:19;;;;;;;2.58;1.77;;;17.30;65.50;;;;;;5061633;28;20080;-58
2022/07/12 05:13:45;;;;;;;4.68;1.40;;;17.40;65.60;;;;;;5063316;28;20021;-60
2022/07/12 05:16:10;;;;;;;2.67;1.30;;;17.40;65.50;;;;;;5067594;28;20021;-61
2022/07/12 05:18:36;;;;;;;3.15;1.45;;;17.50;65.50;;;;;;5051808;28;20024;-61
2022/07/12 05:21:02;;;;;;;2.70;1.60;;;17.60;65.50;;;;;;5056727;28;20032;-60
2022/07/12 05:23:28;;;;;;;8.35;2.10;;;17.60;65.40;;;;;;5036273;28;20025;-59
2022/07/12 05:25:53;;;;;;;2.38;2.15;;;17.70;65.30;;;;;;5060201;28;20033;-60
2022/07/12 05:28:19;;;;;;;4.18;1.92;;;17.80;65.30;;;;;;5057884;28;20061;-61
2022/07/12 05:30:45;;;;;;;2.08;1.77;;;17.90;65.40;;;;;;5053546;28;20449;-59
2022/07/12 05:33:12;;;;;;;3.58;1.85;;;18.00;65.30;;;;;;5053203;28;20034;-61
2022/07/12 05:35:38;;;;;;;3.47;1.67;;;18.10;65.30;;;;;;5044855;28;20021;-60
2022/07/12 05:38:04;;;;;;;7.75;2.28;;;18.20;65.20;;;;;;5057290;28;20042;-60
2022/07/12 05:40:30;;;;;;;5.72;1.85;;;18.30;64.80;;;;;;5067039;28;20029;-59
2022/07/12 05:42:55;;;;;;;2.83;1.55;;;18.40;64.60;;;;;;5039576;28;20042;-60
2022/07/12 05:45:22;;;;;;;4.97;1.95;;;18.60;64.70;;;;;;5047717;28;20037;-61
2022/07/12 05:47:48;;;;;;;2.80;1.92;;;18.70;64.30;;;;;;5052609;28;20021;-59
2022/07/12 05:50:14;;;;;;;2.80;1.70;;;18.80;64.10;;;;;;5067626;28;20515;-60
2022/07/12 05:55:24;;;;;;;3.90;1.70;;;19.10;63.90;;;;;;5035665;28;20044;-60
2022/07/12 05:57:50;;;;;;;4.15;2.00;;;19.20;63.80;;;;;;5045164;28;20029;-59
2022/07/12 06:00:15;;;;;;;1.63;1.45;;;19.30;63.50;;;;;;5056197;28;20076;-60
2022/07/12 06:02:41;;;;;;;9.68;1.50;;;19.40;63.30;;;;;;5070862;28;20123;-59
2022/07/12 06:05:07;;;;;;;2.35;1.17;;;19.50;63.20;;;;;;5057241;28;20024;-60
2022/07/12 06:07:34;;;;;;;4.63;1.67;;;19.60;62.70;;;;;;5073185;28;20037;-59
2022/07/12 06:09:59;;;;;;;4.07;1.13;;;19.70;62.20;;;;;;5052103;28;20044;-59
2022/07/12 06:12:25;;;;;;;4.07;1.20;;;19.80;62.00;;;;;;5051964;28;20029;-60
2022/07/12 06:14:51;;;;;;;1.92;1.20;;;19.90;61.80;;;;;;5049255;28;20026;-59
2022/07/12 06:17:21;;;;;;;3.63;1.23;;;20.00;61.50;;;;;;5070259;28;20088;-60
2022/07/12 06:19:47;;;;;;;4.50;1.30;;;20.00;61.20;;;;;;5074018;28;20029;-60
2022/07/12 06:22:13;;;;;;;3.30;1.27;;;20.10;61.00;;;;;;5050050;28;20029;-59
2022/07/12 06:24:38;;;;;;;5.57;1.05;;;20.20;60.70;;;;;;5006239;28;20028;-60
2022/07/12 06:27:04;;;;;;;2.55;1.00;;;20.30;60.60;;;;;;5046954;28;20485;-62
2022/07/12 06:29:30;;;;;;;1.40;1.00;;;20.40;60.80;;;;;;5041036;28;20041;-60
2022/07/12 06:31:56;;;;;;;4.63;1.20;;;20.40;60.40;;;;;;5029430;28;20046;-61
2022/07/12 06:34:22;;;;;;;4.03;1.08;;;20.50;60.00;;;;;;5046137;28;20035;-60
2022/07/12 06:36:47;;;;;;;6.25;0.82;;;20.60;60.10;;;;;;5056318;28;20026;-60
2022/07/12 06:39:13;;;;;;;3.28;0.90;;;20.80;60.10;;;;;;5049963;28;20025;-60
2022/07/12 06:41:38;;;;;;;6.35;2.25;;;20.90;59.70;;;;;;5062182;28;20025;-59
2022/07/12 06:44:04;;;;;;;1.60;0.85;;;21.00;59.70;;;;;;5058708;28;20419;-61
2022/07/12 06:46:30;;;;;;;2.58;1.08;;;21.20;59.30;;;;;;5040641;28;20674;-60
2022/07/12 06:48:55;;;;;;;2.08;0.82;;;21.30;58.90;;;;;;5047538;28;20277;-60
2022/07/12 06:51:21;;;;;;;7.47;1.00;;;21.40;58.50;;;;;;5050219;28;20053;-60
2022/07/12 06:53:47;;;;;;;7.45;1.08;;;21.50;58.20;;;;;;5050983;28;20030;-60
2022/07/12 06:56:13;;;;;;;3.70;0.80;;;21.60;58.00;;;;;;5052023;28;20025;-61
2022/07/12 06:58:38;;;;;;;5.03;1.00;;;21.70;58.10;;;;;;5053872;28;20107;-59
2022/07/12 07:01:04;;;;;;;13.80;1.10;;;21.80;57.40;;;;;;5052994;28;20056;-61
2022/07/12 07:03:29;;;;;;;4.70;1.00;;;21.80;57.30;;;;;;5046727;28;20057;-60
2022/07/12 07:05:55;;;;;;;4.97;0.88;;;21.90;57.50;;;;;;5056535;28;20056;-60
2022/07/12 07:08:21;;;;;;;5.53;0.60;;;22.00;57.60;;;;;;5046929;28;20111;-62
2022/07/12 07:10:46;;;;;;;4.20;0.40;;;22.10;57.30;;;;;;5052356;28;20064;-60
2022/07/12 07:13:12;;;;;;;1.33;0.50;;;22.20;56.70;;;;;;5048365;28;20025;-59
2022/07/12 07:15:42;;;;;;;4.57;0.57;;;22.30;56.60;;;;;;5050445;28;20057;-59
2022/07/12 07:18:08;;;;;;;7.97;0.43;;;22.40;56.30;;;;;;5049531;28;20018;-60
2022/07/12 07:20:34;;;;;;;3.15;0.50;;;22.50;56.10;;;;;;5052814;28;20028;-60
2022/07/12 07:23:00;;;;;;;1.48;0.50;;;22.70;55.10;;;;;;5050728;28;20034;-59
2022/07/12 07:25:25;;;;;;;0.57;0.40;;;22.80;55.20;;;;;;5048959;28;20045;-59
2022/07/12 07:27:51;;;;;;;2.03;0.40;;;23.00;55.00;;;;;;5048711;28;20036;-60
2022/07/12 07:33:01;;;;;;;1.55;0.50;;;23.30;54.10;;;;;;5040296;28;20198;-59
2022/07/12 07:35:26;;;;;;;2.08;0.50;;;23.40;53.60;;;;;;5052265;28;20029;-60
2022/07/12 07:37:52;;;;;;;1.67;0.60;;;23.50;53.70;;;;;;5048970;28;20055;-60
2022/07/12 07:40:18;;;;;;;0.68;0.45;;;23.60;53.40;;;;;;5058640;28;20056;-60
2022/07/12 07:42:44;;;;;;;1.30;0.50;;;23.80;53.20;;;;;;5041661;28;20508;-59
2022/07/12 07:45:10;;;;;;;1.52;0.55;;;24.00;52.70;;;;;;5038440;28;20033;-59
2022/07/12 07:47:48;;;;;;;1.20;0.40;;;24.10;52.50;;;;;;5040812;28;20079;-59
2022/07/12 07:50:13;;;;;;;2.08;0.75;;;24.20;51.40;;;;;;5038270;28;20029;-60
2022/07/12 07:52:41;;;;;;;1.10;0.30;;;24.40;51.50;;;;;;5051855;28;20047;-59
2022/07/12 07:55:07;;;;;;;0.32;0.30;;;24.50;51.20;;;;;;5045042;28;20040;-60
2022/07/12 07:57:32;;;;;;;0.73;0.40;;;24.50;50.70;;;;;;5038330;28;20032;-59
2022/07/12 07:59:58;;;;;;;0.60;0.43;;;24.60;50.50;;;;;;5044598;28;20030;-60
2022/07/12 08:02:25;;;;;;;0.52;0.40;;;24.60;49.70;;;;;;5044337;28;20044;-60
2022/07/12 08:04:51;;;;;;;3.42;0.40;;;24.60;49.90;;;;;;5054629;28;20038;-60
2022/07/12 08:07:17;;;;;;;3.85;0.50;;;24.50;50.10;;;;;;5039119;28;20451;-59
2022/07/12 08:09:45;;;;;;;2.75;0.50;;;24.50;50.20;;;;;;5046716;28;20022;-58
2022/07/12 08:12:11;;;;;;;3.92;0.68;;;24.60;49.20;;;;;;5046010;28;20044;-60
2022/07/12 08:14:36;;;;;;;4.03;0.40;;;24.70;49.50;;;;;;5031334;28;20680;-59
2022/07/12 08:17:02;;;;;;;3.67;0.50;;;24.70;50.10;;;;;;5046853;28;20045;-60
2022/07/12 08:19:28;;;;;;;3.97;0.50;;;24.80;50.00;;;;;;5054739;28;20032;-60
2022/07/12 08:21:54;;;;;;;0.95;0.50;;;24.90;49.30;;;;;;5036583;28;20057;-60
2022/07/12 08:24:19;;;;;;;1.45;0.60;;;24.90;48.80;;;;;;5043946;28;20025;-60
2022/07/12 08:26:45;;;;;;;3.08;0.60;;;24.90;48.30;;;;;;5043989;28;20091;-59
2022/07/12 08:29:10;;;;;;;0.95;0.43;;;24.80;48.30;;;;;;5052372;28;20135;-60
2022/07/12 08:31:36;;;;;;;11.18;0.70;;;24.70;48.50;;;;;;5042339;28;20033;-59
2022/07/12 08:34:02;;;;;;;1.67;0.60;;;24.70;48.70;;;;;;5033370;28;20033;-61
2022/07/12 08:36:28;;;;;;;3.03;0.82;;;24.60;48.60;;;;;;5055465;28;20025;-60
2022/07/12 08:38:53;;;;;;;7.63;0.80;;;24.60;48.60;;;;;;5039759;28;20064;-59
2022/07/12 08:41:20;;;;;;;5.10;0.50;;;24.50;48.70;;;;;;5045267;28;20057;-59
2022/07/12 08:43:46;;;;;;;3.45;0.65;;;24.40;48.90;;;;;;5046524;28;20048;-59
2022/07/12 08:46:15;;;;;;;2.70;0.60;;;24.40;49.00;;;;;;5045690;28;20026;-59
2022/07/12 08:48:43;;;;;;;2.00;0.50;;;24.40;49.00;;;;;;5044718;28;20033;-59
2022/07/12 08:51:10;;;;;;;4.85;0.60;;;24.30;49.30;;;;;;5062732;28;20040;-61
2022/07/12 08:53:36;;;;;;;2.47;0.63;;;24.40;49.60;;;;;;5047691;28;20018;-61
2022/07/12 08:56:03;;;;;;;3.30;0.43;;;24.40;49.30;;;;;;5051827;28;20068;-61
2022/07/12 08:58:29;;;;;;;0.60;0.40;;;24.40;49.00;;;;;;5049171;28;20029;-60
2022/07/12 09:00:55;;;;;;;3.15;0.50;;;24.50;49.50;;;;;;5065893;28;20025;-61
2022/07/12 09:03:21;;;;;;;0.70;0.40;;;24.50;49.20;;;;;;5067301;28;20029;-59
2022/07/12 09:05:52;;;;;;;1.20;0.40;;;24.60;49.30;;;;;;5047979;28;20030;-59
2022/07/12 09:08:24;;;;;;;0.40;0.40;;;24.70;49.10;;;;;;5048491;28;20025;-60
2022/07/12 09:10:50;;;;;;;0.40;0.40;;;24.80;48.40;;;;;;5029316;28;20048;-59
2022/07/12 09:13:16;;;;;;;3.53;0.70;;;24.90;48.70;;;;;;5041245;28;20057;-61
2022/07/12 09:15:42;;;;;;;2.88;0.50;;;24.90;48.40;;;;;;5067329;28;20036;-60
2022/07/12 09:18:13;;;;;;;0.40;0.40;;;25.00;47.60;;;;;;5047611;28;20033;-60
2022/07/12 09:20:40;;;;;;;0.57;0.40;;;25.00;46.70;;;;;;5045438;28;20033;-59
2022/07/12 09:23:10;;;;;;;1.95;0.50;;;24.90;47.00;;;;;;5056400;28;20037;-59
2022/07/12 09:25:48;;;;;;;0.40;0.40;;;24.90;46.70;;;;;;5035162;28;20052;-60
2022/07/12 09:28:15;;;;;;;1.00;0.40;;;24.80;46.70;;;;;;5044657;28;20063;-59
2022/07/12 09:30:53;;;;;;;0.40;0.40;;;24.80;46.70;;;;;;5047459;28;20071;-60
2022/07/12 09:36:06;;;;;;;1.73;0.32;;;24.90;47.50;;;;;;5068648;28;20395;-60
2022/07/12 09:38:35;;;;;;;0.40;0.35;;;25.00;47.10;;;;;;5055825;28;20033;-60
2022/07/12 09:41:01;;;;;;;3.92;0.47;;;25.00;46.40;;;;;;5046417;28;20029;-60
2022/07/12 09:43:28;;;;;;;1.35;0.40;;;25.10;47.00;;;;;;5053070;28;20067;-58
2022/07/12 09:45:54;;;;;;;1.27;0.30;;;25.10;46.70;;;;;;5045527;28;20076;-59
2022/07/12 09:48:23;;;;;;;0.40;0.30;;;25.10;46.40;;;;;;5045941;28;20400;-61
2022/07/12 09:50:50;;;;;;;3.17;0.40;;;25.20;46.30;;;;;;5042378;28;20024;-59
2022/07/12 09:53:28;;;;;;;0.73;0.43;;;25.30;46.20;;;;;;5049005;28;20029;-59
2022/07/12 09:55:55;;;;;;;0.32;0.32;;;25.40;45.30;;;;;;5039659;28;20049;-60
2022/07/12 09:58:30;;;;;;;0.25;0.25;;;25.50;46.70;;;;;;5046424;28;20028;-59
2022/07/12 10:01:02;;;;;;;0.30;0.25;;;25.70;45.50;;;;;;5051676;28;20025;-61
2022/07/12 10:03:31;;;;;;;0.43;0.30;;;25.90;45.90;;;;;;5053466;28;20052;-62
2022/07/12 10:05:59;;;;;;;0.30;0.30;;;26.20;45.50;;;;;;5047806;28;20029;-60
2022/07/12 10:08:25;;;;;;;3.53;0.57;;;26.50;45.10;;;;;;5049496;28;20076;-60
2022/07/12 10:10:51;;;;;;;0.50;0.30;;;26.70;43.70;;;;;;5038860;28;20080;-61
2022/07/12 10:13:20;;;;;;;3.67;0.30;;;26.80;44.40;;;;;;5052228;28;20040;-59
2022/07/12 10:15:47;;;;;;;2.75;0.20;;;26.90;44.30;;;;;;5040946;28;20025;-60
2022/07/12 10:18:18;;;;;;;0.60;0.20;;;27.10;43.50;;;;;;5051879;28;20026;-60
2022/07/12 10:20:45;;;;;;;0.32;0.20;;;27.20;41.90;;;;;;5056741;28;20109;-60
2022/07/12 10:23:19;;;;;;;0.40;0.20;;;27.20;41.90;;;;;;5047002;28;20037;-60
2022/07/12 10:25:48;;;;;;;0.20;0.20;;;27.10;41.00;;;;;;5037567;28;20059;-61
2022/07/12 10:28:13;;;;;;;0.20;0.20;;;27.00;42.00;;;;;;5040467;28;20380;-61
2022/07/12 10:30:50;;;;;;;0.30;0.30;;;27.00;42.00;;;;;;5050544;28;20029;-61
2022/07/12 10:33:24;;;;;;;0.30;0.30;;;26.90;42.60;;;;;;5042744;28;20029;-61
2022/07/12 10:36:07;;;;;;;0.25;0.25;;;27.00;43.50;;;;;;5043143;28;20033;-60
2022/07/12 10:38:34;;;;;;;0.20;0.20;;;27.10;42.60;;;;;;5043282;28;20511;-60
2022/07/12 10:41:20;;;;;;;0.20;0.20;;;27.30;43.50;;;;;;5039477;28;20040;-59
2022/07/12 10:44:04;;;;;;;0.40;0.30;;;27.50;41.10;;;;;;5045183;28;20053;-60
2022/07/12 10:46:30;;;;;;;0.28;0.28;;;27.70;42.00;;;;;;5041217;28;20036;-60
2022/07/12 10:49:26;;;;;;;1.55;0.30;;;27.70;41.30;;;;;;5046475;28;20040;-61
2022/07/12 10:52:10;;;;;;;1.20;0.30;;;27.60;41.60;;;;;;5038449;28;20029;-59
2022/07/12 10:54:40;;;;;;;2.97;0.30;;;27.60;41.00;;;;;;5042519;28;20025;-60
2022/07/12 10:57:06;;;;;;;0.40;0.25;;;27.70;42.60;;;;;;5035928;28;20129;-59
2022/07/12 10:59:36;;;;;;;5.70;0.28;;;27.70;42.40;;;;;;5047871;28;20033;-60
2022/07/12 11:02:03;;;;;;;2.05;0.47;;;27.90;42.50;;;;;;5038628;28;20030;-60
2022/07/12 11:04:29;;;;;;;0.30;0.30;;;28.00;42.90;;;;;;5053852;28;20036;-60
2022/07/12 11:06:57;;;;;;;0.73;0.30;;;28.20;42.70;;;;;;5051476;28;20017;-60
2022/07/12 11:09:24;;;;;;;0.20;0.20;;;28.40;42.20;;;;;;5041866;28;20025;-60
2022/07/12 11:11:52;;;;;;;0.70;0.20;;;28.50;41.80;;;;;;5046939;28;20068;-61
2022/07/12 11:14:26;;;;;;;0.20;0.20;;;28.70;42.10;;;;;;5040672;28;20060;-61
2022/07/12 11:16:54;;;;;;;1.63;0.30;;;28.80;40.10;;;;;;5044096;28;20029;-59
2022/07/12 11:19:25;;;;;;;0.22;0.20;;;28.90;41.20;;;;;;5042937;28;20031;-59
2022/07/12 11:21:55;;;;;;;1.23;0.30;;;29.20;39.60;;;;;;5046294;28;20026;-60
2022/07/12 11:24:32;;;;;;;2.17;0.30;;;29.20;40.40;;;;;;5029427;28;20786;-61
2022/07/12 11:26:59;;;;;;;5.90;0.50;;;29.40;39.80;;;;;;5043258;28;20017;-60
2022/07/12 11:29:25;;;;;;;0.95;0.40;;;29.50;38.80;;;;;;5037782;28;20050;-60
2022/07/12 11:32:05;;;;;;;2.42;0.30;;;29.50;38.00;;;;;;5042880;28;20040;-61
2022/07/12 11:34:31;;;;;;;0.35;0.20;;;29.40;37.70;;;;;;5044110;28;20033;-60
2022/07/12 11:36:58;;;;;;;7.43;0.20;;;29.30;37.90;;;;;;5045816;28;20036;-60
2022/07/12 11:39:30;;;;;;;0.55;0.30;;;29.30;38.20;;;;;;5045472;28;20033;-60
2022/07/12 11:41:57;;;;;;;2.15;0.20;;;29.30;37.90;;;;;;5044831;28;20117;-60
2022/07/12 11:44:46;;;;;;;0.20;0.20;;;29.40;38.50;;;;;;5044908;28;20025;-61
2022/07/12 11:47:13;;;;;;;0.40;0.40;;;29.50;38.00;;;;;;5033777;28;20041;-59
2022/07/12 11:49:47;;;;;;;1.40;0.30;;;29.60;39.10;;;;;;5041353;28;20037;-60
2022/07/12 11:52:18;;;;;;;1.13;0.20;;;29.60;37.40;;;;;;5031805;28;20036;-59
2022/07/12 11:54:45;;;;;;;0.20;0.10;;;29.70;36.00;;;;;;5044027;28;20037;-60
2022/07/12 11:57:12;;;;;;;0.22;0.20;;;29.70;36.30;;;;;;5042762;28;20091;-59
2022/07/12 11:59:38;;;;;;;2.15;0.40;;;29.60;35.80;;;;;;5050848;28;20523;-60
2022/07/12 12:02:05;;;;;;;1.23;0.40;;;29.60;37.10;;;;;;5052232;28;20037;-61
2022/07/12 12:04:31;;;;;;;0.65;0.20;;;29.60;37.00;;;;;;5050636;28;20030;-60
2022/07/12 12:06:57;;;;;;;0.40;0.20;;;29.60;36.60;;;;;;5044800;28;20033;-60
2022/07/12 12:09:23;;;;;;;1.45;0.30;;;29.60;36.30;;;;;;5046124;28;20092;-60
2022/07/12 12:11:48;;;;;;;0.75;0.20;;;29.70;37.10;;;;;;5052137;28;20060;-61
2022/07/12 12:14:14;;;;;;;1.25;0.20;;;29.80;37.70;;;;;;5047870;28;20033;-61
2022/07/12 12:16:40;;;;;;;2.47;0.40;;;29.90;37.60;;;;;;5047260;28;20026;-60
2022/07/12 12:19:11;;;;;;;4.68;0.30;;;30.20;37.40;;;;;;5049519;28;20587;-61
2022/07/12 12:21:37;;;;;;;0.40;0.30;;;30.30;37.50;;;;;;5042109;28;20025;-62
2022/07/12 12:24:10;;;;;;;0.85;0.20;;;30.50;37.80;;;;;;5059064;28;20083;-59
2022/07/12 12:26:36;;;;;;;0.40;0.20;;;30.60;35.60;;;;;;5001261;28;20452;-60
2022/07/12 12:29:03;;;;;;;1.38;0.30;;;30.80;36.70;;;;;;5058778;28;20041;-59
2022/07/12 12:31:28;;;;;;;1.08;0.30;;;30.90;36.10;;;;;;5053223;28;20049;-59
2022/07/12 12:33:58;;;;;;;1.13;0.30;;;31.00;35.80;;;;;;5046569;28;20116;-60
2022/07/12 12:36:29;;;;;;;2.92;0.20;;;31.00;34.50;;;;;;5029088;28;20094;-60
2022/07/12 12:39:00;;;;;;;0.63;0.20;;;31.00;35.50;;;;;;5050111;28;20033;-61
2022/07/12 12:41:28;;;;;;;0.43;0.30;;;31.00;34.80;;;;;;5059678;28;20045;-61
2022/07/12 12:44:09;;;;;;;0.22;0.22;;;31.00;35.40;;;;;;5029546;28;20092;-60
2022/07/12 12:49:48;;;;;;;0.47;0.20;;;31.20;32.70;;;;;;5065414;28;20149;-61
2022/07/12 12:52:14;;;;;;;0.73;0.25;;;31.20;34.70;;;;;;5059979;28;20018;-60
2022/07/12 12:54:40;;;;;;;0.25;0.20;;;31.30;35.00;;;;;;5068398;28;20055;-61
2022/07/12 12:57:07;;;;;;;0.32;0.20;;;31.30;33.90;;;;;;5048054;28;20036;-60
2022/07/12 12:59:34;;;;;;;0.20;0.20;;;31.30;34.70;;;;;;5049036;28;20029;-60
2022/07/12 13:02:00;;;;;;;0.82;0.20;;;31.30;35.30;;;;;;5057855;28;20048;-61